sensor_id;sensor_type;location;lat;lon;timestamp;temperature;humidity
19342;DHT22;9807;48.258;12.690;2024-01-15T00:02:09;2.00;99.90
19342;DHT22;9807;48.258;12.690;2024-01-15T00:04:41;2.00;99.90
19342;DHT22;9807;48.258;12.690;2024-01-15T00:07:09;1.80;99.90
19342;DHT22;9807;48.258;12.690;2024-01-15T00:09:35;1.40;99.90
19342;DHT22;9807;48.258;12.690;2024-01-15T00:12:01;0.90;99.90
19342;DHT22;9807;48.258;12.690;2024-01-15T00:14:27;0.70;99.90
19342;DHT22;9807;48.258;12.690;2024-01-15T00:16:53;0.10;99.90
19342;DHT22;9807;48.258;12.690;2024-01-15T00:19:21;0.10;99.90
19342;DHT22;9807;48.258;12.690;2024-01-15T00:21:47;0.00;99.90
19342;DHT22;9807;48.258;12.690;2024-01-15T00:24:13;0.20;99.90
19342;DHT22;9807;48.258;12.690;2024-01-15T00:26:39;0.70;99.90
19342;DHT22;9807;48.258;12.690;2024-01-15T00:29:06;0.20;99.90
19342;DHT22;9807;48.258;12.690;2024-01-15T00:31:32;-0.60;99.90
19342;DHT22;9807;48.258;12.690;2024-01-15T00:33:58;-0.80;99.90
19342;DHT22;9807;48.258;12.690;2024-01-15T00:36:27;-0.80;99.90
19342;DHT22;9807;48.258;12.690;2024-01-15T00:38:53;-1.10;99.90
19342;DHT22;9807;48.258;12.690;2024-01-15T00:41:19;-1.30;99.90
19342;DHT22;9807;48.258;12.690;2024-01-15T00:43:45;-1.40;99.90
19342;DHT22;9807;48.258;12.690;2024-01-15T00:46:11;-1.70;99.90
19342;DHT22;9807;48.258;12.690;2024-01-15T00:48:37;-2.40;99.90
19342;DHT22;9807;48.258;12.690;2024-01-15T00:51:04;-3.00;99.90
19342;DHT22;9807;48.258;12.690;2024-01-15T00:53:30;-3.20;99.90
19342;DHT22;9807;48.258;12.690;2024-01-15T00:55:56;-2.80;99.90
19342;DHT22;9807;48.258;12.690;2024-01-15T00:58:22;-2.20;99.90
19342;DHT22;9807;48.258;12.690;2024-01-15T01:00:48;-1.50;99.90
19342;DHT22;9807;48.258;12.690;2024-01-15T01:03:14;-0.80;99.90
19342;DHT22;9807;48.258;12.690;2024-01-15T01:05:39;-0.10;99.90
19342;DHT22;9807;48.258;12.690;2024-01-15T01:08:05;0.20;99.90
19342;DHT22;9807;48.258;12.690;2024-01-15T01:10:31;-0.10;99.90
19342;DHT22;9807;48.258;12.690;2024-01-15T01:12:57;-0.90;99.90
19342;DHT22;9807;48.258;12.690;2024-01-15T01:15:22;-1.50;99.90
19342;DHT22;9807;48.258;12.690;2024-01-15T01:17:49;-1.20;99.90
19342;DHT22;9807;48.258;12.690;2024-01-15T01:20:15;-0.90;99.90
19342;DHT22;9807;48.258;12.690;2024-01-15T01:22:41;-1.20;99.90
19342;DHT22;9807;48.258;12.690;2024-01-15T01:25:07;-1.10;99.90
19342;DHT22;9807;48.258;12.690;2024-01-15T01:27:33;-1.00;99.90
19342;DHT22;9807;48.258;12.690;2024-01-15T01:30:00;-1.30;99.90
19342;DHT22;9807;48.258;12.690;2024-01-15T01:32:26;-2.00;99.90
19342;DHT22;9807;48.258;12.690;2024-01-15T01:34:51;-2.90;99.90
19342;DHT22;9807;48.258;12.690;2024-01-15T01:37:17;-3.70;99.90
19342;DHT22;9807;48.258;12.690;2024-01-15T01:39:44;-4.40;99.90
19342;DHT22;9807;48.258;12.690;2024-01-15T01:42:10;-4.70;99.90
19342;DHT22;9807;48.258;12.690;2024-01-15T01:44:36;-5.00;99.90
19342;DHT22;9807;48.258;12.690;2024-01-15T01:47:02;-5.10;99.90
19342;DHT22;9807;48.258;12.690;2024-01-15T01:49:29;-5.10;99.90
19342;DHT22;9807;48.258;12.690;2024-01-15T01:52:00;-5.00;99.90
19342;DHT22;9807;48.258;12.690;2024-01-15T01:54:29;-4.60;99.90
19342;DHT22;9807;48.258;12.690;2024-01-15T01:56:55;-4.10;99.90
19342;DHT22;9807;48.258;12.690;2024-01-15T01:59:22;-3.30;99.90
19342;DHT22;9807;48.258;12.690;2024-01-15T02:01:49;-2.90;99.90
19342;DHT22;9807;48.258;12.690;2024-01-15T02:04:16;-2.70;99.90
19342;DHT22;9807;48.258;12.690;2024-01-15T02:06:42;-2.40;99.90
19342;DHT22;9807;48.258;12.690;2024-01-15T02:09:08;-2.30;99.90
19342;DHT22;9807;48.258;12.690;2024-01-15T02:11:35;-2.10;99.90
19342;DHT22;9807;48.258;12.690;2024-01-15T02:14:01;-2.00;99.90
19342;DHT22;9807;48.258;12.690;2024-01-15T02:16:27;-2.00;99.90
19342;DHT22;9807;48.258;12.690;2024-01-15T02:18:53;-1.90;99.90
19342;DHT22;9807;48.258;12.690;2024-01-15T02:21:19;-1.90;99.90
19342;DHT22;9807;48.258;12.690;2024-01-15T02:23:44;-1.90;99.90
19342;DHT22;9807;48.258;12.690;2024-01-15T02:26:10;-1.90;99.90
19342;DHT22;9807;48.258;12.690;2024-01-15T02:28:36;-1.90;99.90
19342;DHT22;9807;48.258;12.690;2024-01-15T02:31:02;-1.90;99.90
19342;DHT22;9807;48.258;12.690;2024-01-15T02:33:27;-1.80;99.90
19342;DHT22;9807;48.258;12.690;2024-01-15T02:35:53;-1.80;99.90
19342;DHT22;9807;48.258;12.690;2024-01-15T02:38:18;-1.80;99.90
19342;DHT22;9807;48.258;12.690;2024-01-15T02:40:45;-1.90;99.90
19342;DHT22;9807;48.258;12.690;2024-01-15T02:43:11;-1.90;99.90
19342;DHT22;9807;48.258;12.690;2024-01-15T02:45:37;-1.80;99.90
19342;DHT22;9807;48.258;12.690;2024-01-15T02:48:03;-1.80;99.90
19342;DHT22;9807;48.258;12.690;2024-01-15T02:50:28;-1.80;99.90
19342;DHT22;9807;48.258;12.690;2024-01-15T02:52:54;-1.80;99.90
19342;DHT22;9807;48.258;12.690;2024-01-15T02:55:20;-1.80;99.90
19342;DHT22;9807;48.258;12.690;2024-01-15T02:57:45;-1.80;99.90
19342;DHT22;9807;48.258;12.690;2024-01-15T03:00:11;-1.90;99.90
19342;DHT22;9807;48.258;12.690;2024-01-15T03:02:38;-1.90;99.90
19342;DHT22;9807;48.258;12.690;2024-01-15T03:05:09;-1.90;99.90
19342;DHT22;9807;48.258;12.690;2024-01-15T03:07:35;-1.90;99.90
19342;DHT22;9807;48.258;12.690;2024-01-15T03:10:01;-1.90;99.90
19342;DHT22;9807;48.258;12.690;2024-01-15T03:12:26;-2.00;99.90
19342;DHT22;9807;48.258;12.690;2024-01-15T03:14:52;-2.00;99.90
19342;DHT22;9807;48.258;12.690;2024-01-15T03:17:18;-2.00;99.90
19342;DHT22;9807;48.258;12.690;2024-01-15T03:19:44;-2.00;99.90
19342;DHT22;9807;48.258;12.690;2024-01-15T03:22:10;-2.00;99.90
19342;DHT22;9807;48.258;12.690;2024-01-15T03:24:36;-2.10;99.90
19342;DHT22;9807;48.258;12.690;2024-01-15T03:27:02;-2.10;99.90
19342;DHT22;9807;48.258;12.690;2024-01-15T03:29:28;-2.10;99.90
19342;DHT22;9807;48.258;12.690;2024-01-15T03:31:53;-2.10;99.90
19342;DHT22;9807;48.258;12.690;2024-01-15T03:34:19;-2.10;99.90
19342;DHT22;9807;48.258;12.690;2024-01-15T03:36:45;-2.10;99.90
19342;DHT22;9807;48.258;12.690;2024-01-15T03:39:10;-2.10;99.90
19342;DHT22;9807;48.258;12.690;2024-01-15T03:41:36;-2.10;99.90
19342;DHT22;9807;48.258;12.690;2024-01-15T03:44:02;-2.10;99.90
19342;DHT22;9807;48.258;12.690;2024-01-15T03:46:28;-2.00;99.90
19342;DHT22;9807;48.258;12.690;2024-01-15T03:48:53;-2.00;99.90
19342;DHT22;9807;48.258;12.690;2024-01-15T03:51:19;-1.90;99.90
19342;DHT22;9807;48.258;12.690;2024-01-15T03:53:45;-1.90;99.90
19342;DHT22;9807;48.258;12.690;2024-01-15T03:56:11;-1.90;99.90
19342;DHT22;9807;48.258;12.690;2024-01-15T03:58:37;-1.90;99.90
19342;DHT22;9807;48.258;12.690;2024-01-15T04:01:03;-1.90;99.90
19342;DHT22;9807;48.258;12.690;2024-01-15T04:03:28;-1.90;99.90
19342;DHT22;9807;48.258;12.690;2024-01-15T04:05:54;-1.90;99.90
19342;DHT22;9807;48.258;12.690;2024-01-15T04:08:20;-2.00;99.90
19342;DHT22;9807;48.258;12.690;2024-01-15T04:10:45;-2.00;99.90
19342;DHT22;9807;48.258;12.690;2024-01-15T04:13:11;-2.10;99.90
19342;DHT22;9807;48.258;12.690;2024-01-15T04:15:37;-2.00;99.90
19342;DHT22;9807;48.258;12.690;2024-01-15T04:18:03;-2.10;99.90
19342;DHT22;9807;48.258;12.690;2024-01-15T04:20:29;-1.90;99.90
19342;DHT22;9807;48.258;12.690;2024-01-15T04:22:54;-1.50;99.90
19342;DHT22;9807;48.258;12.690;2024-01-15T04:25:20;-1.00;99.90
19342;DHT22;9807;48.258;12.690;2024-01-15T04:27:46;-0.50;99.90
19342;DHT22;9807;48.258;12.690;2024-01-15T04:30:12;-0.10;99.90
19342;DHT22;9807;48.258;12.690;2024-01-15T04:32:37;0.10;99.90
19342;DHT22;9807;48.258;12.690;2024-01-15T04:35:03;0.20;99.90
19342;DHT22;9807;48.258;12.690;2024-01-15T04:37:29;0.10;99.90
19342;DHT22;9807;48.258;12.690;2024-01-15T04:39:55;0.10;99.90
19342;DHT22;9807;48.258;12.690;2024-01-15T04:42:21;0.10;99.90
19342;DHT22;9807;48.258;12.690;2024-01-15T04:44:48;0.10;99.90
19342;DHT22;9807;48.258;12.690;2024-01-15T04:47:13;0.20;99.90
19342;DHT22;9807;48.258;12.690;2024-01-15T04:49:39;0.40;99.90
19342;DHT22;9807;48.258;12.690;2024-01-15T04:52:05;0.50;99.90
19342;DHT22;9807;48.258;12.690;2024-01-15T04:54:30;0.60;99.90
19342;DHT22;9807;48.258;12.690;2024-01-15T04:56:56;0.60;99.90
19342;DHT22;9807;48.258;12.690;2024-01-15T04:59:22;0.50;99.90
19342;DHT22;9807;48.258;12.690;2024-01-15T05:01:47;0.30;99.90
19342;DHT22;9807;48.258;12.690;2024-01-15T05:04:14;0.40;99.90
19342;DHT22;9807;48.258;12.690;2024-01-15T05:06:40;0.30;99.90
19342;DHT22;9807;48.258;12.690;2024-01-15T05:09:05;0.40;99.90
19342;DHT22;9807;48.258;12.690;2024-01-15T05:11:31;0.50;99.90
19342;DHT22;9807;48.258;12.690;2024-01-15T05:13:57;0.80;99.90
19342;DHT22;9807;48.258;12.690;2024-01-15T05:16:22;1.00;99.90
19342;DHT22;9807;48.258;12.690;2024-01-15T05:18:48;0.80;99.90
19342;DHT22;9807;48.258;12.690;2024-01-15T05:21:14;1.00;99.90
19342;DHT22;9807;48.258;12.690;2024-01-15T05:23:40;1.10;99.90
19342;DHT22;9807;48.258;12.690;2024-01-15T05:26:05;1.30;99.90
19342;DHT22;9807;48.258;12.690;2024-01-15T05:28:31;1.30;99.90
19342;DHT22;9807;48.258;12.690;2024-01-15T05:30:56;1.40;99.90
19342;DHT22;9807;48.258;12.690;2024-01-15T05:33:23;1.30;99.90
19342;DHT22;9807;48.258;12.690;2024-01-15T05:35:49;1.30;99.90
19342;DHT22;9807;48.258;12.690;2024-01-15T05:38:16;1.10;99.90
19342;DHT22;9807;48.258;12.690;2024-01-15T05:40:41;1.10;99.90
19342;DHT22;9807;48.258;12.690;2024-01-15T05:43:07;0.90;99.90
19342;DHT22;9807;48.258;12.690;2024-01-15T05:45:34;0.60;99.90
19342;DHT22;9807;48.258;12.690;2024-01-15T05:48:00;0.30;99.90
19342;DHT22;9807;48.258;12.690;2024-01-15T05:50:25;0.00;99.90
19342;DHT22;9807;48.258;12.690;2024-01-15T05:52:51;-0.40;99.90
19342;DHT22;9807;48.258;12.690;2024-01-15T05:55:17;-0.50;99.90
19342;DHT22;9807;48.258;12.690;2024-01-15T05:57:44;-0.50;99.90
19342;DHT22;9807;48.258;12.690;2024-01-15T06:00:10;-0.60;99.90
19342;DHT22;9807;48.258;12.690;2024-01-15T06:02:37;-0.70;99.90
19342;DHT22;9807;48.258;12.690;2024-01-15T06:05:04;-0.80;99.90
19342;DHT22;9807;48.258;12.690;2024-01-15T06:07:30;-0.80;99.90
19342;DHT22;9807;48.258;12.690;2024-01-15T06:09:55;-0.70;99.90
19342;DHT22;9807;48.258;12.690;2024-01-15T06:12:22;-0.80;99.90
19342;DHT22;9807;48.258;12.690;2024-01-15T06:14:48;-0.90;99.90
19342;DHT22;9807;48.258;12.690;2024-01-15T06:17:14;-1.00;99.90
19342;DHT22;9807;48.258;12.690;2024-01-15T06:19:40;-1.00;99.90
19342;DHT22;9807;48.258;12.690;2024-01-15T06:22:05;-1.00;99.90
19342;DHT22;9807;48.258;12.690;2024-01-15T06:24:31;-1.00;99.90
19342;DHT22;9807;48.258;12.690;2024-01-15T06:26:57;-0.70;99.90
19342;DHT22;9807;48.258;12.690;2024-01-15T06:29:25;-0.60;99.90
19342;DHT22;9807;48.258;12.690;2024-01-15T06:31:51;-0.60;99.90
19342;DHT22;9807;48.258;12.690;2024-01-15T06:34:17;-0.60;99.90
19342;DHT22;9807;48.258;12.690;2024-01-15T06:36:42;-0.60;99.90
19342;DHT22;9807;48.258;12.690;2024-01-15T06:39:11;-0.50;99.90
19342;DHT22;9807;48.258;12.690;2024-01-15T06:41:37;-0.40;99.90
19342;DHT22;9807;48.258;12.690;2024-01-15T06:44:12;-0.20;99.90
19342;DHT22;9807;48.258;12.690;2024-01-15T06:46:45;-0.20;99.90
19342;DHT22;9807;48.258;12.690;2024-01-15T06:49:11;-0.20;99.90
19342;DHT22;9807;48.258;12.690;2024-01-15T06:51:37;-0.20;99.90
19342;DHT22;9807;48.258;12.690;2024-01-15T06:54:03;-0.30;99.90
19342;DHT22;9807;48.258;12.690;2024-01-15T06:56:28;-0.40;99.90
19342;DHT22;9807;48.258;12.690;2024-01-15T06:58:57;-0.40;99.90
19342;DHT22;9807;48.258;12.690;2024-01-15T07:01:24;-0.50;99.90
19342;DHT22;9807;48.258;12.690;2024-01-15T07:03:50;-0.50;99.90
19342;DHT22;9807;48.258;12.690;2024-01-15T07:06:15;-0.50;99.90
19342;DHT22;9807;48.258;12.690;2024-01-15T07:08:42;-0.50;99.90
19342;DHT22;9807;48.258;12.690;2024-01-15T07:11:08;-0.50;99.90
19342;DHT22;9807;48.258;12.690;2024-01-15T07:13:36;-0.50;99.90
19342;DHT22;9807;48.258;12.690;2024-01-15T07:16:02;-0.50;99.90
19342;DHT22;9807;48.258;12.690;2024-01-15T07:18:27;-0.40;99.90
19342;DHT22;9807;48.258;12.690;2024-01-15T07:20:53;-0.40;99.90
19342;DHT22;9807;48.258;12.690;2024-01-15T07:23:19;-0.30;99.90
19342;DHT22;9807;48.258;12.690;2024-01-15T07:25:45;-0.30;99.90
19342;DHT22;9807;48.258;12.690;2024-01-15T07:28:11;-0.30;99.90
19342;DHT22;9807;48.258;12.690;2024-01-15T07:30:36;-0.30;99.90
19342;DHT22;9807;48.258;12.690;2024-01-15T07:33:04;-0.30;99.90
19342;DHT22;9807;48.258;12.690;2024-01-15T07:35:30;-0.20;99.90
19342;DHT22;9807;48.258;12.690;2024-01-15T07:37:56;-0.10;99.90
19342;DHT22;9807;48.258;12.690;2024-01-15T07:40:22;-0.10;99.90
19342;DHT22;9807;48.258;12.690;2024-01-15T07:42:48;-0.10;99.90
19342;DHT22;9807;48.258;12.690;2024-01-15T07:45:14;-0.10;99.90
19342;DHT22;9807;48.258;12.690;2024-01-15T07:47:39;-0.20;99.90
19342;DHT22;9807;48.258;12.690;2024-01-15T07:50:05;-0.20;99.90
19342;DHT22;9807;48.258;12.690;2024-01-15T07:52:31;-0.20;99.90
19342;DHT22;9807;48.258;12.690;2024-01-15T07:54:57;-0.20;99.90
19342;DHT22;9807;48.258;12.690;2024-01-15T07:57:25;-0.20;99.90
19342;DHT22;9807;48.258;12.690;2024-01-15T07:59:50;-0.10;99.90
19342;DHT22;9807;48.258;12.690;2024-01-15T08:02:17;-0.20;99.90
19342;DHT22;9807;48.258;12.690;2024-01-15T08:04:42;-0.20;99.90
19342;DHT22;9807;48.258;12.690;2024-01-15T08:07:08;-0.10;99.90
19342;DHT22;9807;48.258;12.690;2024-01-15T08:09:34;-0.10;99.90
19342;DHT22;9807;48.258;12.690;2024-01-15T08:12:03;0.00;99.90
19342;DHT22;9807;48.258;12.690;2024-01-15T08:14:31;0.00;99.90
19342;DHT22;9807;48.258;12.690;2024-01-15T08:16:57;0.00;99.90
19342;DHT22;9807;48.258;12.690;2024-01-15T08:19:22;0.10;99.90
19342;DHT22;9807;48.258;12.690;2024-01-15T08:21:49;0.10;99.90
19342;DHT22;9807;48.258;12.690;2024-01-15T08:24:15;0.20;99.90
19342;DHT22;9807;48.258;12.690;2024-01-15T08:26:40;0.20;99.90
19342;DHT22;9807;48.258;12.690;2024-01-15T08:29:06;0.40;99.90
19342;DHT22;9807;48.258;12.690;2024-01-15T08:31:32;0.40;99.90
19342;DHT22;9807;48.258;12.690;2024-01-15T08:33:57;0.30;99.90
19342;DHT22;9807;48.258;12.690;2024-01-15T08:36:24;0.30;99.90
19342;DHT22;9807;48.258;12.690;2024-01-15T08:38:50;0.30;99.90
19342;DHT22;9807;48.258;12.690;2024-01-15T08:41:16;0.40;99.90
19342;DHT22;9807;48.258;12.690;2024-01-15T08:43:41;0.40;99.90
19342;DHT22;9807;48.258;12.690;2024-01-15T08:46:07;0.40;99.90
19342;DHT22;9807;48.258;12.690;2024-01-15T08:48:33;0.50;99.90
19342;DHT22;9807;48.258;12.690;2024-01-15T08:51:03;0.50;99.90
19342;DHT22;9807;48.258;12.690;2024-01-15T08:53:29;0.60;99.90
19342;DHT22;9807;48.258;12.690;2024-01-15T08:56:00;0.60;99.90
19342;DHT22;9807;48.258;12.690;2024-01-15T08:58:26;0.60;99.90
19342;DHT22;9807;48.258;12.690;2024-01-15T09:00:52;0.60;99.90
19342;DHT22;9807;48.258;12.690;2024-01-15T09:03:17;0.60;99.90
19342;DHT22;9807;48.258;12.690;2024-01-15T09:05:43;0.60;99.90
19342;DHT22;9807;48.258;12.690;2024-01-15T09:08:09;0.60;99.90
19342;DHT22;9807;48.258;12.690;2024-01-15T09:10:34;0.70;99.90
19342;DHT22;9807;48.258;12.690;2024-01-15T09:13:00;0.70;99.90
19342;DHT22;9807;48.258;12.690;2024-01-15T09:15:26;0.80;99.90
19342;DHT22;9807;48.258;12.690;2024-01-15T09:17:51;0.70;99.90
19342;DHT22;9807;48.258;12.690;2024-01-15T09:20:17;0.70;99.90
19342;DHT22;9807;48.258;12.690;2024-01-15T09:22:44;0.70;99.90
19342;DHT22;9807;48.258;12.690;2024-01-15T09:25:10;0.70;99.90
19342;DHT22;9807;48.258;12.690;2024-01-15T09:27:36;0.70;99.90
19342;DHT22;9807;48.258;12.690;2024-01-15T09:30:02;0.70;99.90
19342;DHT22;9807;48.258;12.690;2024-01-15T09:32:28;0.80;99.90
19342;DHT22;9807;48.258;12.690;2024-01-15T09:34:54;0.80;99.90
19342;DHT22;9807;48.258;12.690;2024-01-15T09:37:21;0.90;99.90
19342;DHT22;9807;48.258;12.690;2024-01-15T09:39:46;0.90;99.90
19342;DHT22;9807;48.258;12.690;2024-01-15T09:42:13;0.90;99.90
19342;DHT22;9807;48.258;12.690;2024-01-15T09:44:40;1.00;99.90
19342;DHT22;9807;48.258;12.690;2024-01-15T09:47:06;1.00;99.90
19342;DHT22;9807;48.258;12.690;2024-01-15T09:49:32;0.90;99.90
19342;DHT22;9807;48.258;12.690;2024-01-15T09:52:02;0.80;99.90
19342;DHT22;9807;48.258;12.690;2024-01-15T09:54:28;0.80;99.90
19342;DHT22;9807;48.258;12.690;2024-01-15T09:56:57;0.70;99.90
19342;DHT22;9807;48.258;12.690;2024-01-15T09:59:26;0.70;99.90
19342;DHT22;9807;48.258;12.690;2024-01-15T10:01:53;0.80;99.90
19342;DHT22;9807;48.258;12.690;2024-01-15T10:04:19;0.80;99.90
19342;DHT22;9807;48.258;12.690;2024-01-15T10:06:45;0.80;99.90
19342;DHT22;9807;48.258;12.690;2024-01-15T10:09:12;0.90;99.90
19342;DHT22;9807;48.258;12.690;2024-01-15T10:11:43;0.90;99.90
19342;DHT22;9807;48.258;12.690;2024-01-15T10:14:13;0.80;99.90
19342;DHT22;9807;48.258;12.690;2024-01-15T10:16:42;0.80;99.90
19342;DHT22;9807;48.258;12.690;2024-01-15T10:19:08;0.80;99.90
19342;DHT22;9807;48.258;12.690;2024-01-15T10:21:35;0.80;99.90
19342;DHT22;9807;48.258;12.690;2024-01-15T10:24:01;0.90;99.90
19342;DHT22;9807;48.258;12.690;2024-01-15T10:26:28;1.00;99.90
19342;DHT22;9807;48.258;12.690;2024-01-15T10:28:54;1.10;99.90
19342;DHT22;9807;48.258;12.690;2024-01-15T10:31:20;1.00;99.90
19342;DHT22;9807;48.258;12.690;2024-01-15T10:34:24;1.10;99.90
19342;DHT22;9807;48.258;12.690;2024-01-15T10:36:50;1.20;99.90
19342;DHT22;9807;48.258;12.690;2024-01-15T10:39:24;1.20;99.90
19342;DHT22;9807;48.258;12.690;2024-01-15T10:41:50;1.30;99.90
19342;DHT22;9807;48.258;12.690;2024-01-15T10:44:19;1.40;99.90
19342;DHT22;9807;48.258;12.690;2024-01-15T10:46:45;1.30;99.90
19342;DHT22;9807;48.258;12.690;2024-01-15T10:49:13;1.30;99.90
19342;DHT22;9807;48.258;12.690;2024-01-15T10:51:42;1.30;99.90
19342;DHT22;9807;48.258;12.690;2024-01-15T10:54:09;1.40;99.90
19342;DHT22;9807;48.258;12.690;2024-01-15T10:56:37;1.50;99.90
19342;DHT22;9807;48.258;12.690;2024-01-15T10:59:04;1.50;99.90
19342;DHT22;9807;48.258;12.690;2024-01-15T11:01:30;1.40;99.90
19342;DHT22;9807;48.258;12.690;2024-01-15T11:03:57;1.40;99.90
19342;DHT22;9807;48.258;12.690;2024-01-15T11:06:24;1.40;99.90
19342;DHT22;9807;48.258;12.690;2024-01-15T11:08:52;1.40;99.90
19342;DHT22;9807;48.258;12.690;2024-01-15T11:11:18;1.50;99.90
19342;DHT22;9807;48.258;12.690;2024-01-15T11:13:46;1.50;99.90
19342;DHT22;9807;48.258;12.690;2024-01-15T11:16:14;1.70;99.90
19342;DHT22;9807;48.258;12.690;2024-01-15T11:19:02;1.60;99.90
19342;DHT22;9807;48.258;12.690;2024-01-15T11:21:28;1.70;99.90
19342;DHT22;9807;48.258;12.690;2024-01-15T11:24:01;1.70;99.90
19342;DHT22;9807;48.258;12.690;2024-01-15T11:26:38;1.70;99.90
19342;DHT22;9807;48.258;12.690;2024-01-15T11:29:30;1.70;99.90
19342;DHT22;9807;48.258;12.690;2024-01-15T11:37:16;1.60;99.90
19342;DHT22;9807;48.258;12.690;2024-01-15T11:39:43;1.60;99.90
19342;DHT22;9807;48.258;12.690;2024-01-15T11:42:11;1.60;99.90
19342;DHT22;9807;48.258;12.690;2024-01-15T11:44:38;1.50;99.90
19342;DHT22;9807;48.258;12.690;2024-01-15T11:47:06;1.40;99.90
19342;DHT22;9807;48.258;12.690;2024-01-15T11:50:03;1.30;99.90
19342;DHT22;9807;48.258;12.690;2024-01-15T11:52:41;1.20;99.90
19342;DHT22;9807;48.258;12.690;2024-01-15T11:55:17;1.20;99.90
19342;DHT22;9807;48.258;12.690;2024-01-15T11:57:52;1.10;99.90
19342;DHT22;9807;48.258;12.690;2024-01-15T12:00:20;1.10;99.90
19342;DHT22;9807;48.258;12.690;2024-01-15T12:02:48;1.10;99.90
19342;DHT22;9807;48.258;12.690;2024-01-15T12:05:15;1.20;99.90
19342;DHT22;9807;48.258;12.690;2024-01-15T12:07:42;1.20;99.90
19342;DHT22;9807;48.258;12.690;2024-01-15T12:10:09;1.20;99.90
19342;DHT22;9807;48.258;12.690;2024-01-15T12:12:56;1.20;99.90
19342;DHT22;9807;48.258;12.690;2024-01-15T12:15:24;1.30;99.90
19342;DHT22;9807;48.258;12.690;2024-01-15T12:17:49;1.20;99.90
19342;DHT22;9807;48.258;12.690;2024-01-15T12:20:15;1.20;99.90
19342;DHT22;9807;48.258;12.690;2024-01-15T12:22:42;1.30;99.90
19342;DHT22;9807;48.258;12.690;2024-01-15T12:25:09;1.20;99.90
19342;DHT22;9807;48.258;12.690;2024-01-15T12:27:35;1.20;99.90
19342;DHT22;9807;48.258;12.690;2024-01-15T12:30:00;1.20;99.90
19342;DHT22;9807;48.258;12.690;2024-01-15T12:32:29;1.30;99.90
19342;DHT22;9807;48.258;12.690;2024-01-15T12:34:55;1.40;99.90
19342;DHT22;9807;48.258;12.690;2024-01-15T12:37:21;1.40;99.90
19342;DHT22;9807;48.258;12.690;2024-01-15T12:39:47;1.30;99.90
19342;DHT22;9807;48.258;12.690;2024-01-15T12:42:16;1.40;99.90
19342;DHT22;9807;48.258;12.690;2024-01-15T12:44:43;1.50;99.90
19342;DHT22;9807;48.258;12.690;2024-01-15T12:47:09;1.60;99.90
19342;DHT22;9807;48.258;12.690;2024-01-15T12:49:39;1.60;99.90
19342;DHT22;9807;48.258;12.690;2024-01-15T12:52:08;1.60;99.90
19342;DHT22;9807;48.258;12.690;2024-01-15T12:54:34;1.70;99.90
19342;DHT22;9807;48.258;12.690;2024-01-15T12:57:00;1.80;99.90
19342;DHT22;9807;48.258;12.690;2024-01-15T12:59:26;1.90;99.90
19342;DHT22;9807;48.258;12.690;2024-01-15T13:01:52;2.00;99.90
19342;DHT22;9807;48.258;12.690;2024-01-15T13:04:24;2.00;99.90
19342;DHT22;9807;48.258;12.690;2024-01-15T13:06:51;2.10;99.90
19342;DHT22;9807;48.258;12.690;2024-01-15T13:09:17;2.20;99.90
19342;DHT22;9807;48.258;12.690;2024-01-15T13:11:44;2.30;99.90
19342;DHT22;9807;48.258;12.690;2024-01-15T13:14:10;2.20;99.90
19342;DHT22;9807;48.258;12.690;2024-01-15T13:16:36;2.30;99.90
19342;DHT22;9807;48.258;12.690;2024-01-15T13:19:02;2.30;99.90
19342;DHT22;9807;48.258;12.690;2024-01-15T13:21:30;2.30;99.90
19342;DHT22;9807;48.258;12.690;2024-01-15T13:23:55;2.40;99.90
19342;DHT22;9807;48.258;12.690;2024-01-15T13:26:21;2.40;99.90
19342;DHT22;9807;48.258;12.690;2024-01-15T13:28:48;2.60;99.90
19342;DHT22;9807;48.258;12.690;2024-01-15T13:31:14;2.70;99.90
19342;DHT22;9807;48.258;12.690;2024-01-15T13:33:40;2.70;99.90
19342;DHT22;9807;48.258;12.690;2024-01-15T13:36:06;2.70;99.90
19342;DHT22;9807;48.258;12.690;2024-01-15T13:38:36;2.80;99.90
19342;DHT22;9807;48.258;12.690;2024-01-15T13:41:06;2.80;99.90
19342;DHT22;9807;48.258;12.690;2024-01-15T13:43:32;2.70;99.90
19342;DHT22;9807;48.258;12.690;2024-01-15T13:46:04;2.50;99.90
19342;DHT22;9807;48.258;12.690;2024-01-15T13:48:31;2.50;99.90
19342;DHT22;9807;48.258;12.690;2024-01-15T13:51:03;2.50;99.90
19342;DHT22;9807;48.258;12.690;2024-01-15T13:53:28;2.40;99.90
19342;DHT22;9807;48.258;12.690;2024-01-15T13:55:55;2.30;99.90
19342;DHT22;9807;48.258;12.690;2024-01-15T13:58:20;2.30;99.90
19342;DHT22;9807;48.258;12.690;2024-01-15T14:00:47;2.30;99.90
19342;DHT22;9807;48.258;12.690;2024-01-15T14:03:13;2.30;99.90
19342;DHT22;9807;48.258;12.690;2024-01-15T14:05:39;2.30;99.90
19342;DHT22;9807;48.258;12.690;2024-01-15T14:08:05;2.20;99.90
19342;DHT22;9807;48.258;12.690;2024-01-15T14:10:31;2.10;99.90
19342;DHT22;9807;48.258;12.690;2024-01-15T14:12:58;2.10;99.90
19342;DHT22;9807;48.258;12.690;2024-01-15T14:15:26;2.20;99.90
19342;DHT22;9807;48.258;12.690;2024-01-15T14:17:52;2.30;99.90
19342;DHT22;9807;48.258;12.690;2024-01-15T14:20:18;2.30;99.90
19342;DHT22;9807;48.258;12.690;2024-01-15T14:22:44;2.20;99.90
19342;DHT22;9807;48.258;12.690;2024-01-15T14:25:10;2.20;99.90
19342;DHT22;9807;48.258;12.690;2024-01-15T14:27:35;2.20;99.90
19342;DHT22;9807;48.258;12.690;2024-01-15T14:30:02;2.20;99.90
19342;DHT22;9807;48.258;12.690;2024-01-15T14:32:28;2.00;99.90
19342;DHT22;9807;48.258;12.690;2024-01-15T14:34:54;1.80;99.90
19342;DHT22;9807;48.258;12.690;2024-01-15T14:37:22;1.70;99.90
19342;DHT22;9807;48.258;12.690;2024-01-15T14:39:47;1.80;99.90
19342;DHT22;9807;48.258;12.690;2024-01-15T14:42:13;1.80;99.90
19342;DHT22;9807;48.258;12.690;2024-01-15T14:44:39;1.80;99.90
19342;DHT22;9807;48.258;12.690;2024-01-15T14:47:06;1.70;99.90
19342;DHT22;9807;48.258;12.690;2024-01-15T14:49:33;1.70;99.90
19342;DHT22;9807;48.258;12.690;2024-01-15T14:51:59;1.60;99.90
19342;DHT22;9807;48.258;12.690;2024-01-15T14:54:25;1.60;99.90
19342;DHT22;9807;48.258;12.690;2024-01-15T14:56:51;1.60;99.90
19342;DHT22;9807;48.258;12.690;2024-01-15T14:59:17;1.60;99.90
19342;DHT22;9807;48.258;12.690;2024-01-15T15:01:45;1.60;99.90
19342;DHT22;9807;48.258;12.690;2024-01-15T15:04:11;1.60;99.90
19342;DHT22;9807;48.258;12.690;2024-01-15T15:06:37;1.60;99.90
19342;DHT22;9807;48.258;12.690;2024-01-15T15:09:03;1.70;99.90
19342;DHT22;9807;48.258;12.690;2024-01-15T15:11:35;1.70;99.90
19342;DHT22;9807;48.258;12.690;2024-01-15T15:14:03;1.70;99.90
19342;DHT22;9807;48.258;12.690;2024-01-15T15:16:30;1.70;99.90
19342;DHT22;9807;48.258;12.690;2024-01-15T15:18:56;1.60;99.90
19342;DHT22;9807;48.258;12.690;2024-01-15T15:21:22;1.50;99.90
19342;DHT22;9807;48.258;12.690;2024-01-15T15:23:47;1.50;99.90
19342;DHT22;9807;48.258;12.690;2024-01-15T15:26:13;1.50;99.90
19342;DHT22;9807;48.258;12.690;2024-01-15T15:28:39;1.30;99.90
19342;DHT22;9807;48.258;12.690;2024-01-15T15:31:08;1.30;99.90
19342;DHT22;9807;48.258;12.690;2024-01-15T15:33:34;1.20;99.90
19342;DHT22;9807;48.258;12.690;2024-01-15T15:36:03;1.20;99.90
19342;DHT22;9807;48.258;12.690;2024-01-15T15:38:31;1.10;99.90
19342;DHT22;9807;48.258;12.690;2024-01-15T15:40:57;1.10;99.90
19342;DHT22;9807;48.258;12.690;2024-01-15T15:43:22;1.10;99.90